Time;durP1;ratioP1;P1;durP2;ratioP2;P2;SDS_P1;SDS_P2;PMS_P1;PMS_P2;Temp;Humidity;BMP_temperature;BMP_pressure;BME280_temperature;BME280_humidity;BME280_pressure;Samples;Min_cycle;Max_cycle;Signal;HPM_P1;HPM_P2
2021/12/08 00:00:24;;;;;;;9.32;3.50;;;;;;;;;;5039199;28;20040;-83
2021/12/08 00:02:49;;;;;;;6.35;3.33;;;;;;;;;;5054006;28;20033;-83
2021/12/08 00:05:18;;;;;;;5.28;2.88;;;;;;;;;;5038609;28;20017;-83
2021/12/08 00:07:45;;;;;;;5.85;3.70;;;;;;;;;;5054174;28;20056;-83
2021/12/08 00:13:09;;;;;;;8.13;3.85;;;;;;;;;;5037753;28;20032;-83
2021/12/08 00:15:43;;;;;;;7.40;3.60;;;;;;;;;;5033017;28;20045;-83
2021/12/08 00:18:10;;;;;;;6.28;3.42;;;;;;;;;;5045378;28;20045;-83
2021/12/08 00:20:37;;;;;;;5.93;3.25;;;;;;;;;;5038397;28;20472;-83
2021/12/08 00:23:04;;;;;;;4.25;2.67;;;;;;;;;;5057064;28;20032;-84
2021/12/08 00:25:31;;;;;;;6.85;3.28;;;;;;;;;;5057682;28;20076;-83
2021/12/08 00:27:57;;;;;;;7.40;3.47;;;;;;;;;;5057633;28;20033;-84
2021/12/08 00:30:24;;;;;;;7.63;2.90;;;;;;;;;;5044708;28;20078;-82
2021/12/08 00:32:51;;;;;;;4.80;2.95;;;;;;;;;;5035878;28;20487;-82
2021/12/08 00:35:17;;;;;;;7.00;2.70;;;;;;;;;;5037785;28;20028;-83
2021/12/08 00:37:42;;;;;;;5.55;2.78;;;;;;;;;;5038359;28;20135;-84
2021/12/08 00:40:11;;;;;;;6.22;2.60;;;;;;;;;;5036215;28;20384;-82
2021/12/08 00:42:36;;;;;;;5.45;2.65;;;;;;;;;;5037702;28;20025;-84
2021/12/08 00:45:04;;;;;;;4.88;2.40;;;;;;;;;;5051628;28;20120;-84
2021/12/08 00:47:30;;;;;;;4.15;2.42;;;;;;;;;;5052298;28;20045;-83
2021/12/08 00:49:55;;;;;;;7.10;2.72;;;;;;;;;;5037495;28;20391;-84
2021/12/08 00:52:21;;;;;;;5.60;2.35;;;;;;;;;;5037590;28;20029;-84
2021/12/08 00:54:46;;;;;;;7.05;2.45;;;;;;;;;;5037895;28;20025;-84
2021/12/08 00:57:12;;;;;;;5.78;2.33;;;;;;;;;;5053447;28;20041;-84
2021/12/08 00:59:38;;;;;;;9.25;2.40;;;;;;;;;;5053276;28;20033;-85
2021/12/08 01:02:05;;;;;;;3.53;2.20;;;;;;;;;;5037738;28;20031;-85
2021/12/08 01:04:31;;;;;;;8.55;2.25;;;;;;;;;;5052368;28;20029;-85
2021/12/08 01:06:56;;;;;;;8.05;2.13;;;;;;;;;;5038844;28;20029;-84
2021/12/08 01:09:22;;;;;;;5.43;3.10;;;;;;;;;;5059163;28;20438;-85
2021/12/08 01:11:48;;;;;;;4.60;2.50;;;;;;;;;;5035552;28;20030;-86
2021/12/08 01:14:14;;;;;;;3.95;2.33;;;;;;;;;;5050141;28;20029;-86
2021/12/08 01:16:40;;;;;;;9.00;2.55;;;;;;;;;;5050762;28;20021;-85
2021/12/08 01:19:06;;;;;;;3.88;2.28;;;;;;;;;;5051006;28;20083;-84
2021/12/08 01:21:31;;;;;;;2.35;2.03;;;;;;;;;;5046863;28;20021;-84
2021/12/08 01:23:56;;;;;;;4.70;2.20;;;;;;;;;;5047951;28;20479;-84
2021/12/08 01:26:22;;;;;;;3.42;2.05;;;;;;;;;;5033240;28;20065;-86
2021/12/08 01:28:49;;;;;;;2.00;1.75;;;;;;;;;;5048276;28;20025;-85
2021/12/08 01:31:15;;;;;;;5.20;2.13;;;;;;;;;;5024891;28;20021;-86
2021/12/08 01:33:40;;;;;;;2.90;1.80;;;;;;;;;;5033134;28;20017;-84
2021/12/08 01:36:06;;;;;;;1.73;1.40;;;;;;;;;;5048694;28;20036;-84
2021/12/08 01:38:33;;;;;;;3.33;2.13;;;;;;;;;;5048108;28;20021;-85
2021/12/08 01:40:59;;;;;;;3.88;2.03;;;;;;;;;;5049179;28;20022;-85
2021/12/08 01:43:27;;;;;;;5.85;1.92;;;;;;;;;;5033417;28;20018;-85
2021/12/08 01:46:05;;;;;;;4.78;1.98;;;;;;;;;;5064205;28;20083;-85
2021/12/08 01:48:34;;;;;;;3.60;2.13;;;;;;;;;;5040716;28;20030;-85
2021/12/08 01:51:11;;;;;;;5.43;2.25;;;;;;;;;;5049929;28;20026;-85
2021/12/08 01:53:38;;;;;;;3.42;1.52;;;;;;;;;;5038012;28;20406;-85
2021/12/08 01:56:04;;;;;;;2.45;1.60;;;;;;;;;;5035340;28;20100;-84
2021/12/08 01:58:30;;;;;;;2.45;1.55;;;;;;;;;;5067957;28;20056;-83
2021/12/08 02:00:59;;;;;;;3.25;1.90;;;;;;;;;;5054057;28;20029;-84
2021/12/08 02:03:26;;;;;;;3.47;1.80;;;;;;;;;;5054069;28;20039;-84
2021/12/08 02:05:52;;;;;;;4.63;1.70;;;;;;;;;;5038511;28;20574;-85
2021/12/08 02:08:18;;;;;;;4.45;2.03;;;;;;;;;;5037473;28;20025;-84
2021/12/08 02:10:44;;;;;;;2.45;1.70;;;;;;;;;;5039035;28;20032;-84
2021/12/08 02:13:10;;;;;;;3.08;1.77;;;;;;;;;;5054601;28;20035;-87
2021/12/08 02:15:37;;;;;;;4.65;1.92;;;;;;;;;;5054492;28;20021;-85
2021/12/08 02:18:05;;;;;;;4.38;2.20;;;;;;;;;;5054733;28;20395;-85
2021/12/08 02:20:31;;;;;;;4.28;2.20;;;;;;;;;;5054655;28;20530;-84
2021/12/08 02:22:57;;;;;;;3.65;1.90;;;;;;;;;;5038348;28;20040;-84
2021/12/08 02:25:25;;;;;;;3.20;2.10;;;;;;;;;;5054703;28;20070;-85
2021/12/08 02:27:54;;;;;;;4.43;2.10;;;;;;;;;;5038250;28;20026;-85
2021/12/08 02:30:52;;;;;;;4.40;1.90;;;;;;;;;;5054006;28;20021;-84
2021/12/08 02:48:15;;;;;;;;;;;;;;;;;;;;;
2021/12/08 02:50:43;;;;;;;2.83;2.20;;;;;;;;;;5039556;28;20093;-86
2021/12/08 02:53:35;;;;;;;5.80;2.15;;;;;;;;;;5040020;28;20037;-85
2021/12/08 02:56:01;;;;;;;3.00;2.30;;;;;;;;;;5055984;28;20021;-86
2021/12/08 02:58:26;;;;;;;4.95;2.88;;;;;;;;;;5041501;28;20446;-87
2021/12/08 03:00:57;;;;;;;5.40;2.40;;;;;;;;;;5053006;28;20032;-86
2021/12/08 03:03:22;;;;;;;5.55;2.67;;;;;;;;;;5070959;28;20029;-86
2021/12/08 03:05:48;;;;;;;3.13;2.25;;;;;;;;;;5054008;28;20028;-81
2021/12/08 03:08:13;;;;;;;6.18;2.70;;;;;;;;;;5051748;28;20021;-86
2021/12/08 03:10:42;;;;;;;4.00;2.75;;;;;;;;;;5041977;28;20022;-82
2021/12/08 03:13:08;;;;;;;3.30;2.53;;;;;;;;;;5038246;28;20116;-83
2021/12/08 03:15:35;;;;;;;5.88;2.55;;;;;;;;;;5060286;28;20076;-84
2021/12/08 03:18:01;;;;;;;5.32;2.97;;;;;;;;;;5067693;28;20025;-82
2021/12/08 03:20:38;;;;;;;6.63;2.90;;;;;;;;;;5045946;28;20107;-84
2021/12/08 03:23:05;;;;;;;6.15;2.83;;;;;;;;;;5055145;28;20475;-82
2021/12/08 03:25:37;;;;;;;9.95;3.03;;;;;;;;;;5037968;28;20460;-84
2021/12/08 03:28:09;;;;;;;5.80;3.30;;;;;;;;;;5047501;28;20052;-83
2021/12/08 03:30:40;;;;;;;4.38;2.50;;;;;;;;;;5040351;28;20103;-83
2021/12/08 03:33:06;;;;;;;5.85;2.72;;;;;;;;;;5037083;28;20056;-84
2021/12/08 03:35:31;;;;;;;5.25;2.58;;;;;;;;;;5037506;28;20017;-83
2021/12/08 03:37:58;;;;;;;6.10;3.17;;;;;;;;;;5060291;28;20032;-83
2021/12/08 03:40:25;;;;;;;7.07;2.80;;;;;;;;;;5053326;28;20025;-83
2021/12/08 03:42:54;;;;;;;3.83;2.95;;;;;;;;;;5052438;28;20037;-84
2021/12/08 03:48:48;;;;;;;5.10;2.67;;;;;;;;;;5038734;28;20040;-85
2021/12/08 03:51:15;;;;;;;5.63;2.63;;;;;;;;;;5053736;28;20025;-85
2021/12/08 03:53:42;;;;;;;4.95;2.80;;;;;;;;;;5038155;28;20017;-84
2021/12/08 03:56:07;;;;;;;6.50;3.55;;;;;;;;;;5053020;28;20021;-84
2021/12/08 03:58:33;;;;;;;6.10;2.90;;;;;;;;;;5038405;28;20098;-84
2021/12/08 04:00:59;;;;;;;6.43;3.20;;;;;;;;;;5052534;28;20044;-84
2021/12/08 04:03:29;;;;;;;6.07;3.45;;;;;;;;;;5053451;28;20026;-83
2021/12/08 04:05:58;;;;;;;3.95;2.92;;;;;;;;;;5058979;28;20053;-85
2021/12/08 04:08:32;;;;;;;8.95;3.60;;;;;;;;;;5052303;28;20025;-83
2021/12/08 04:11:00;;;;;;;6.10;3.10;;;;;;;;;;5040127;28;20468;-83
2021/12/08 04:13:32;;;;;;;10.32;3.65;;;;;;;;;;5061431;28;20045;-84
2021/12/08 04:15:57;;;;;;;3.50;3.10;;;;;;;;;;5039237;28;20077;-86
2021/12/08 04:18:23;;;;;;;5.90;3.60;;;;;;;;;;5055512;28;20114;-85
2021/12/08 04:20:52;;;;;;;7.07;4.00;;;;;;;;;;5054022;28;20027;-83
2021/12/08 04:23:21;;;;;;;5.40;3.20;;;;;;;;;;5052577;28;20072;-85
2021/12/08 04:25:51;;;;;;;6.28;3.47;;;;;;;;;;5054076;28;20112;-86
2021/12/08 04:28:21;;;;;;;8.95;3.60;;;;;;;;;;5038773;28;20071;-85
2021/12/08 04:30:57;;;;;;;4.93;3.03;;;;;;;;;;5039287;28;20039;-84
2021/12/08 04:33:23;;;;;;;7.63;2.92;;;;;;;;;;5054783;28;20144;-84
2021/12/08 04:35:53;;;;;;;6.75;3.05;;;;;;;;;;5038397;28;20491;-83
2021/12/08 04:38:25;;;;;;;5.70;2.83;;;;;;;;;;5053980;28;20025;-85
2021/12/08 04:41:04;;;;;;;5.63;3.08;;;;;;;;;;5038191;28;20033;-85
2021/12/08 04:43:43;;;;;;;5.00;2.95;;;;;;;;;;5037430;28;20075;-85
2021/12/08 05:03:41;;;;;;;7.97;3.60;;;;;;;;;;5040676;28;20475;-86
2021/12/08 05:08:43;;;;;;;7.18;3.63;;;;;;;;;;5045346;28;20045;-83
2021/12/08 05:11:16;;;;;;;6.85;3.80;;;;;;;;;;5037516;28;20037;-84
2021/12/08 05:13:43;;;;;;;6.15;3.75;;;;;;;;;;5038588;28;20026;-83
2021/12/08 05:16:11;;;;;;;5.53;3.45;;;;;;;;;;5047113;28;20029;-84
2021/12/08 05:18:41;;;;;;;7.90;4.20;;;;;;;;;;5055178;28;20113;-83
2021/12/08 05:21:20;;;;;;;9.57;3.90;;;;;;;;;;5050150;28;20117;-84
2021/12/08 05:23:51;;;;;;;4.70;3.47;;;;;;;;;;5041549;28;20022;-83
2021/12/08 05:26:24;;;;;;;5.18;3.28;;;;;;;;;;5033067;28;20470;-84
2021/12/08 05:28:51;;;;;;;5.18;3.53;;;;;;;;;;5050889;28;20740;-84
2021/12/08 05:31:24;;;;;;;6.13;3.75;;;;;;;;;;5035454;28;20387;-83
2021/12/08 05:33:51;;;;;;;11.40;4.20;;;;;;;;;;5052219;28;20387;-83
2021/12/08 05:36:18;;;;;;;7.47;3.90;;;;;;;;;;5053375;28;20026;-85
2021/12/08 05:38:44;;;;;;;7.00;4.22;;;;;;;;;;5052539;28;20025;-84
2021/12/08 05:41:17;;;;;;;6.93;4.00;;;;;;;;;;5033085;28;20049;-84
2021/12/08 05:43:44;;;;;;;7.75;3.65;;;;;;;;;;5035933;28;20031;-84
2021/12/08 05:46:11;;;;;;;8.70;4.03;;;;;;;;;;5040833;28;20021;-84
2021/12/08 05:48:36;;;;;;;9.05;3.70;;;;;;;;;;5053114;28;20093;-85
2021/12/08 05:51:16;;;;;;;6.60;3.88;;;;;;;;;;5042207;28;20049;-83
2021/12/08 05:53:45;;;;;;;6.32;3.75;;;;;;;;;;5052263;28;20024;-84
2021/12/08 05:56:11;;;;;;;5.90;3.72;;;;;;;;;;5053302;28;20025;-84
2021/12/08 05:58:38;;;;;;;7.70;3.80;;;;;;;;;;5037543;28;20032;-85
2021/12/08 06:01:07;;;;;;;3.90;3.28;;;;;;;;;;5053479;28;20029;-84
2021/12/08 06:03:33;;;;;;;6.75;3.50;;;;;;;;;;5037246;28;20029;-84
2021/12/08 06:06:00;;;;;;;9.60;3.90;;;;;;;;;;5053458;28;20029;-87
2021/12/08 06:08:28;;;;;;;6.78;3.42;;;;;;;;;;5044699;28;20018;-84
2021/12/08 06:10:58;;;;;;;7.80;3.60;;;;;;;;;;5037454;28;20098;-83
2021/12/08 06:13:23;;;;;;;7.82;3.75;;;;;;;;;;5037592;28;20446;-85
2021/12/08 06:15:50;;;;;;;6.78;4.22;;;;;;;;;;5053419;28;20021;-85
2021/12/08 06:18:20;;;;;;;9.05;3.97;;;;;;;;;;5038549;28;20047;-85
2021/12/08 06:20:46;;;;;;;7.72;3.75;;;;;;;;;;5043474;28;20029;-84
2021/12/08 06:23:11;;;;;;;8.18;4.63;;;;;;;;;;5038294;28;20033;-82
2021/12/08 06:25:39;;;;;;;6.18;4.07;;;;;;;;;;5038714;28;20025;-85
2021/12/08 06:28:07;;;;;;;5.85;4.57;;;;;;;;;;5019770;28;20030;-85
2021/12/08 06:30:35;;;;;;;6.90;4.03;;;;;;;;;;5035485;28;20030;-84
2021/12/08 06:33:01;;;;;;;5.50;4.18;;;;;;;;;;5037525;28;20065;-82
2021/12/08 06:35:57;;;;;;;5.45;3.78;;;;;;;;;;5034854;28;20101;-84
2021/12/08 06:38:48;;;;;;;8.27;4.43;;;;;;;;;;5037231;28;20097;-84
2021/12/08 06:41:29;;;;;;;8.88;5.00;;;;;;;;;;5033447;28;20037;-84
2021/12/08 06:44:12;;;;;;;8.20;5.43;;;;;;;;;;5023845;28;20040;-84
2021/12/08 06:46:42;;;;;;;14.35;6.32;;;;;;;;;;5042031;28;20036;-85
2021/12/08 06:49:10;;;;;;;14.13;6.35;;;;;;;;;;5039992;28;20029;-83
2021/12/08 06:51:50;;;;;;;13.25;6.30;;;;;;;;;;5039177;28;20124;-84
2021/12/08 06:54:34;;;;;;;11.88;5.80;;;;;;;;;;5041511;28;20017;-85
2021/12/08 06:57:06;;;;;;;13.52;5.75;;;;;;;;;;5057780;28;20078;-85
2021/12/08 06:59:35;;;;;;;;;;;;;;;;;;5049259;28;20112;-84
2021/12/08 07:02:14;;;;;;;7.78;5.32;;;;;;;;;;5049453;28;19909;-83
2021/12/08 07:08:10;;;;;;;8.60;4.85;;;;;;;;;;4986548;28;20062;-84
2021/12/08 07:10:40;;;;;;;7.78;5.18;;;;;;;;;;5034110;28;20071;-82
2021/12/08 07:13:14;;;;;;;11.25;5.82;;;;;;;;;;5049522;28;20035;-82
2021/12/08 07:15:50;;;;;;;11.65;5.70;;;;;;;;;;5050100;28;20025;-85
2021/12/08 07:18:20;;;;;;;14.68;6.25;;;;;;;;;;5058200;28;20108;-85
2021/12/08 07:20:55;;;;;;;11.20;5.93;;;;;;;;;;5041480;28;20033;-83
2021/12/08 07:23:25;;;;;;;7.80;5.22;;;;;;;;;;5039016;28;20067;-84
2021/12/08 07:25:54;;;;;;;9.32;5.18;;;;;;;;;;5038779;28;20025;-83
2021/12/08 07:28:23;;;;;;;9.23;5.25;;;;;;;;;;5054764;28;20090;-84
2021/12/08 07:30:53;;;;;;;10.30;5.20;;;;;;;;;;5052404;28;20049;-82
2021/12/08 07:33:19;;;;;;;11.60;5.40;;;;;;;;;;5073027;28;20074;-82
2021/12/08 07:35:49;;;;;;;10.45;5.00;;;;;;;;;;5056815;28;20063;-83
2021/12/08 07:38:18;;;;;;;8.90;5.40;;;;;;;;;;5030581;28;20033;-82
2021/12/08 07:40:54;;;;;;;8.18;4.57;;;;;;;;;;5053781;28;20036;-83
2021/12/08 07:43:24;;;;;;;7.22;4.70;;;;;;;;;;5037216;28;20029;-84
2021/12/08 07:46:13;;;;;;;7.78;4.43;;;;;;;;;;5053019;28;20030;-83
2021/12/08 07:48:47;;;;;;;9.95;4.72;;;;;;;;;;5037055;28;20383;-85
2021/12/08 07:51:18;;;;;;;7.47;4.60;;;;;;;;;;5036115;28;20065;-86
2021/12/08 07:53:44;;;;;;;7.68;4.22;;;;;;;;;;5061739;28;20037;-83
2021/12/08 07:56:12;;;;;;;10.30;4.85;;;;;;;;;;5056592;28;20084;-84
2021/12/08 07:58:40;;;;;;;7.25;3.97;;;;;;;;;;5055436;28;20029;-85
2021/12/08 08:01:14;;;;;;;7.10;4.05;;;;;;;;;;5032291;28;21254;-81
2021/12/08 08:03:40;;;;;;;7.65;4.53;;;;;;;;;;5058500;28;20037;-81
2021/12/08 08:06:10;;;;;;;6.78;4.15;;;;;;;;;;5062718;28;20108;-86
2021/12/08 08:08:35;;;;;;;8.23;4.25;;;;;;;;;;5055089;28;20029;-84
2021/12/08 08:11:09;;;;;;;9.93;5.03;;;;;;;;;;5057428;28;20112;-84
2021/12/08 08:13:36;;;;;;;10.77;4.57;;;;;;;;;;5036493;28;20072;-84
2021/12/08 08:16:09;;;;;;;9.25;5.22;;;;;;;;;;5061928;28;20060;-84
2021/12/08 08:18:39;;;;;;;10.18;4.70;;;;;;;;;;5052532;28;20377;-83
2021/12/08 08:21:09;;;;;;;6.40;4.40;;;;;;;;;;5037294;28;20056;-86
2021/12/08 08:23:35;;;;;;;8.45;4.55;;;;;;;;;;5037294;28;20152;-85
2021/12/08 08:26:02;;;;;;;5.95;4.15;;;;;;;;;;5053667;28;20068;-85
2021/12/08 08:28:28;;;;;;;5.53;4.20;;;;;;;;;;5057029;28;20021;-86
2021/12/08 08:30:53;;;;;;;5.82;4.10;;;;;;;;;;5037043;28;20109;-85
2021/12/08 08:33:20;;;;;;;9.20;4.90;;;;;;;;;;5052828;28;20053;-86
2021/12/08 08:35:52;;;;;;;7.00;4.55;;;;;;;;;;5044351;28;20067;-84
2021/12/08 08:38:28;;;;;;;;;;;;;;;;;;5059969;28;20029;-85
2021/12/08 08:41:08;;;;;;;9.85;4.63;;;;;;;;;;5048897;28;19987;-85
2021/12/08 08:43:34;;;;;;;11.10;5.43;;;;;;;;;;5052191;28;20033;-85
2021/12/08 08:46:08;;;;;;;10.60;6.40;;;;;;;;;;5051907;28;20455;-85
2021/12/08 08:48:41;;;;;;;11.13;6.15;;;;;;;;;;5040112;28;20143;-85
2021/12/08 08:51:10;;;;;;;9.25;6.18;;;;;;;;;;5053559;28;20025;-86
2021/12/08 08:53:38;;;;;;;9.32;6.10;;;;;;;;;;5037127;28;20032;-85
2021/12/08 08:56:10;;;;;;;12.25;6.10;;;;;;;;;;5037476;28;20029;-84
2021/12/08 08:58:37;;;;;;;11.93;5.60;;;;;;;;;;5051723;28;20097;-83
2021/12/08 09:01:14;;;;;;;9.57;5.00;;;;;;;;;;5037440;28;20088;-85
2021/12/08 09:04:03;;;;;;;9.95;5.07;;;;;;;;;;5048121;28;20029;-86
2021/12/08 09:06:34;;;;;;;9.07;5.43;;;;;;;;;;5040696;28;20041;-85
2021/12/08 09:09:03;;;;;;;7.72;5.25;;;;;;;;;;5037634;28;20026;-85
2021/12/08 09:11:35;;;;;;;9.73;5.80;;;;;;;;;;5037257;28;20021;-85
2021/12/08 09:14:16;;;;;;;8.75;5.38;;;;;;;;;;5052168;28;20029;-84
2021/12/08 09:16:47;;;;;;;9.02;5.20;;;;;;;;;;5036960;28;20033;-85
2021/12/08 09:19:17;;;;;;;9.20;4.95;;;;;;;;;;5077695;22;20475;-82
2021/12/08 09:22:12;;;;;;;7.47;5.10;;;;;;;;;;5045238;28;20075;-84
2021/12/08 09:24:48;;;;;;;10.52;5.80;;;;;;;;;;5043647;28;20029;-85
2021/12/08 09:27:19;;;;;;;9.20;4.78;;;;;;;;;;5045205;28;20376;-84
2021/12/08 09:29:55;;;;;;;9.25;5.70;;;;;;;;;;5041685;28;20029;-85
2021/12/08 09:32:29;;;;;;;8.57;5.18;;;;;;;;;;5042055;28;20045;-83
2021/12/08 09:35:04;;;;;;;8.73;4.78;;;;;;;;;;5055727;28;20115;-86
2021/12/08 09:37:35;;;;;;;6.93;4.60;;;;;;;;;;5050480;28;20482;-84
2021/12/08 09:40:09;;;;;;;7.65;3.85;;;;;;;;;;5054116;28;20033;-85
2021/12/08 09:42:40;;;;;;;6.60;3.75;;;;;;;;;;5053947;28;20039;-86
2021/12/08 09:45:11;;;;;;;5.75;3.97;;;;;;;;;;5052545;28;20027;-84
2021/12/08 09:47:37;;;;;;;8.48;3.97;;;;;;;;;;5048662;28;20037;-85
2021/12/08 09:50:06;;;;;;;5.63;3.63;;;;;;;;;;5049044;28;20040;-84
2021/12/08 09:52:33;;;;;;;9.80;3.83;;;;;;;;;;5055835;28;20039;-84
2021/12/08 09:55:01;;;;;;;4.20;2.90;;;;;;;;;;5055136;28;20021;-84
2021/12/08 09:57:28;;;;;;;5.30;3.40;;;;;;;;;;5051298;28;20123;-85
2021/12/08 09:59:54;;;;;;;5.35;3.53;;;;;;;;;;5052029;28;20025;-84
2021/12/08 10:02:30;;;;;;;5.43;3.45;;;;;;;;;;5041295;28;20027;-84
2021/12/08 10:05:06;;;;;;;7.10;3.97;;;;;;;;;;5052155;28;20079;-84
2021/12/08 10:07:32;;;;;;;5.18;3.83;;;;;;;;;;5050891;28;20041;-86
2021/12/08 10:09:58;;;;;;;7.88;3.83;;;;;;;;;;5056379;28;20055;-85
2021/12/08 10:12:23;;;;;;;7.60;4.53;;;;;;;;;;5056263;28;20029;-83
2021/12/08 10:14:50;;;;;;;6.97;4.60;;;;;;;;;;5060611;28;20474;-85
2021/12/08 10:17:18;;;;;;;8.38;4.93;;;;;;;;;;5049568;28;20245;-85
2021/12/08 10:19:46;;;;;;;5.70;4.20;;;;;;;;;;5054231;28;20053;-84
2021/12/08 10:22:20;;;;;;;5.82;3.65;;;;;;;;;;5061115;28;20047;-84
2021/12/08 10:25:14;;;;;;;6.05;3.58;;;;;;;;;;5061115;28;20013;-84
2021/12/08 10:28:10;;;;;;;6.47;3.65;;;;;;;;;;5059132;28;20105;-83
2021/12/08 10:30:46;;;;;;;5.10;3.42;;;;;;;;;;5036658;28;20033;-85
2021/12/08 10:33:36;;;;;;;5.80;3.15;;;;;;;;;;5055812;28;20019;-84
2021/12/08 10:36:15;;;;;;;4.95;3.22;;;;;;;;;;5054234;28;20044;-85
2021/12/08 10:38:40;;;;;;;3.45;2.70;;;;;;;;;;5044789;28;20029;-83
2021/12/08 10:41:07;;;;;;;4.93;2.97;;;;;;;;;;5052639;28;20033;-83
2021/12/08 10:43:33;;;;;;;4.70;2.92;;;;;;;;;;5050333;28;20076;-84
2021/12/08 10:46:11;;;;;;;6.35;3.13;;;;;;;;;;5043675;28;20045;-86
2021/12/08 10:48:43;;;;;;;4.18;3.17;;;;;;;;;;5052487;28;20090;-85
2021/12/08 10:54:30;;;;;;;5.75;3.85;;;;;;;;;;5060703;28;20501;-86
2021/12/08 10:57:00;;;;;;;6.03;3.58;;;;;;;;;;5052836;28;20048;-84
2021/12/08 10:59:56;;;;;;;3.72;3.30;;;;;;;;;;5052943;28;20021;-86
2021/12/08 11:02:46;;;;;;;5.68;3.70;;;;;;;;;;5046085;28;20071;-84
2021/12/08 11:05:24;;;;;;;7.13;3.50;;;;;;;;;;5056729;28;20048;-83
2021/12/08 11:08:07;;;;;;;5.63;3.50;;;;;;;;;;5042346;28;20029;-85
2021/12/08 11:10:57;;;;;;;6.07;3.33;;;;;;;;;;5040810;28;20108;-84
2021/12/08 11:13:29;;;;;;;5.25;3.90;;;;;;;;;;5022370;28;20401;-86
2021/12/08 11:16:03;;;;;;;7.82;4.60;;;;;;;;;;5049659;28;20044;-82
2021/12/08 11:18:30;;;;;;;5.70;3.63;;;;;;;;;;5033609;28;20124;-87
2021/12/08 11:21:06;;;;;;;6.63;3.35;;;;;;;;;;5048657;28;20025;-87
2021/12/08 11:23:42;;;;;;;6.45;4.30;;;;;;;;;;5048361;28;20063;-86
2021/12/08 11:26:21;;;;;;;5.63;3.30;;;;;;;;;;5038756;28;20021;-86
2021/12/08 11:29:01;;;;;;;4.30;3.50;;;;;;;;;;5047225;28;20029;-83
2021/12/08 11:31:33;;;;;;;9.77;4.93;;;;;;;;;;5040667;28;20022;-86
2021/12/08 11:34:01;;;;;;;7.03;4.70;;;;;;;;;;5045144;28;20018;-84
2021/12/08 11:36:34;;;;;;;10.40;5.18;;;;;;;;;;5062226;28;20026;-85
2021/12/08 11:39:08;;;;;;;12.18;5.20;;;;;;;;;;5057697;28;20498;-86
2021/12/08 11:41:43;;;;;;;9.18;5.75;;;;;;;;;;5061034;28;20048;-83
2021/12/08 11:44:21;;;;;;;8.93;5.03;;;;;;;;;;5060656;28;20016;-86
2021/12/08 11:46:54;;;;;;;8.68;4.68;;;;;;;;;;5053807;28;20036;-82
2021/12/08 11:49:20;;;;;;;7.22;4.82;;;;;;;;;;5054110;28;20017;-85
2021/12/08 11:51:52;;;;;;;8.98;4.97;;;;;;;;;;5059667;28;20074;-84
2021/12/08 11:54:30;;;;;;;7.05;4.95;;;;;;;;;;5060990;28;20033;-84
2021/12/08 11:57:10;;;;;;;6.55;4.32;;;;;;;;;;5053807;28;20041;-84
2021/12/08 11:59:44;;;;;;;7.38;5.35;;;;;;;;;;5051151;28;20021;-83
2021/12/08 12:02:13;;;;;;;9.57;5.70;;;;;;;;;;5057657;28;20026;-84
2021/12/08 12:04:39;;;;;;;9.52;5.97;;;;;;;;;;5061886;28;20100;-86
2021/12/08 12:07:05;;;;;;;13.18;5.90;;;;;;;;;;5056156;28;20025;-83
2021/12/08 12:09:30;;;;;;;9.27;6.45;;;;;;;;;;5061929;28;20082;-82
2021/12/08 12:12:01;;;;;;;12.85;6.50;;;;;;;;;;5049056;28;20035;-80
2021/12/08 12:14:32;;;;;;;8.85;5.95;;;;;;;;;;5061472;28;20021;-83
2021/12/08 12:16:58;;;;;;;9.88;6.85;;;;;;;;;;5058908;28;20027;-80
2021/12/08 12:19:27;;;;;;;11.90;6.18;;;;;;;;;;5057455;28;20096;-84
2021/12/08 12:22:01;;;;;;;9.43;6.10;;;;;;;;;;5061280;28;20020;-86
2021/12/08 12:24:48;;;;;;;9.13;6.35;;;;;;;;;;5023646;28;20416;-84
2021/12/08 12:27:25;;;;;;;9.55;5.75;;;;;;;;;;5054621;28;20090;-84
2021/12/08 12:30:19;;;;;;;11.90;6.03;;;;;;;;;;5048049;28;20024;-83
2021/12/08 12:32:54;;;;;;;17.75;7.30;;;;;;;;;;5051947;28;20021;-83
2021/12/08 12:35:27;;;;;;;12.20;6.40;;;;;;;;;;5054735;28;20422;-83
2021/12/08 12:38:07;;;;;;;11.05;6.88;;;;;;;;;;5054159;28;20084;-84
2021/12/08 12:40:38;;;;;;;7.95;4.75;;;;;;;;;;5033007;28;20037;-84
2021/12/08 12:43:05;;;;;;;6.47;4.85;;;;;;;;;;5042282;28;20383;-83
2021/12/08 12:45:38;;;;;;;9.45;5.38;;;;;;;;;;5049419;28;20033;-83
2021/12/08 12:48:11;;;;;;;7.38;4.55;;;;;;;;;;5053551;28;20517;-83
2021/12/08 12:50:56;;;;;;;8.77;4.55;;;;;;;;;;5053274;28;20033;-84
2021/12/08 12:53:44;;;;;;;7.72;4.25;;;;;;;;;;5052401;28;20410;-84
2021/12/08 12:56:37;;;;;;;5.55;4.15;;;;;;;;;;5060792;28;20028;-83
2021/12/08 12:59:21;;;;;;;6.78;4.38;;;;;;;;;;5050502;28;20025;-84
2021/12/08 13:02:04;;;;;;;5.10;4.20;;;;;;;;;;5056053;28;20057;-85
2021/12/08 13:04:30;;;;;;;7.78;4.72;;;;;;;;;;5043652;28;20051;-84
2021/12/08 13:06:58;;;;;;;7.53;4.70;;;;;;;;;;5050835;28;20079;-83
2021/12/08 13:09:51;;;;;;;8.65;5.22;;;;;;;;;;5049419;28;20629;-84
2021/12/08 13:12:19;;;;;;;10.55;5.35;;;;;;;;;;5048565;28;20044;-83
2021/12/08 13:14:47;;;;;;;7.68;4.82;;;;;;;;;;5052813;28;20044;-83
2021/12/08 13:17:22;;;;;;;6.93;4.20;;;;;;;;;;5045237;28;20114;-84
2021/12/08 13:19:53;;;;;;;5.68;4.15;;;;;;;;;;5049234;28;20029;-83
2021/12/08 13:22:40;;;;;;;6.80;4.83;;;;;;;;;;5039061;28;20030;-83
2021/12/08 13:25:24;;;;;;;5.18;3.90;;;;;;;;;;5048951;28;20020;-83
2021/12/08 13:28:06;;;;;;;6.45;4.00;;;;;;;;;;5044368;28;20033;-83
2021/12/08 13:30:32;;;;;;;7.03;4.65;;;;;;;;;;5031223;28;20029;-84
2021/12/08 13:33:07;;;;;;;10.07;4.25;;;;;;;;;;5036809;28;20037;-84
2021/12/08 13:35:37;;;;;;;8.90;4.13;;;;;;;;;;5043259;28;20085;-83
2021/12/08 13:38:04;;;;;;;6.85;3.92;;;;;;;;;;5037041;28;20471;-83
2021/12/08 13:41:12;;;;;;;7.35;4.20;;;;;;;;;;5036977;28;20041;-83
2021/12/08 13:43:39;;;;;;;7.82;4.97;;;;;;;;;;5021146;28;20037;-83
2021/12/08 13:46:07;;;;;;;6.53;4.50;;;;;;;;;;5045175;28;20026;-83
2021/12/08 13:48:33;;;;;;;8.80;4.30;;;;;;;;;;5035648;28;20033;-83
2021/12/08 13:51:16;;;;;;;7.68;4.70;;;;;;;;;;5037423;28;20032;-83
2021/12/08 13:53:42;;;;;;;11.32;5.30;;;;;;;;;;5037378;28;20082;-83
2021/12/08 13:56:07;;;;;;;8.82;5.55;;;;;;;;;;5038769;28;20498;-83
2021/12/08 13:58:39;;;;;;;8.43;5.18;;;;;;;;;;5031939;28;20025;-83
2021/12/08 14:01:06;;;;;;;9.95;5.25;;;;;;;;;;5035549;28;20021;-84
2021/12/08 14:03:39;;;;;;;8.85;5.68;;;;;;;;;;5035759;28;20029;-84
2021/12/08 14:06:07;;;;;;;11.68;5.88;;;;;;;;;;5036901;28;20021;-83
2021/12/08 14:08:38;;;;;;;8.07;5.55;;;;;;;;;;5044773;28;20029;-83
2021/12/08 14:11:16;;;;;;;10.48;5.65;;;;;;;;;;5036628;28;20364;-82
2021/12/08 14:13:45;;;;;;;7.68;5.03;;;;;;;;;;5030515;28;20026;-83
2021/12/08 14:16:14;;;;;;;9.23;5.72;;;;;;;;;;5036822;28;20021;-83
2021/12/08 14:18:47;;;;;;;10.10;6.30;;;;;;;;;;5053354;28;20029;-82
2021/12/08 14:21:23;;;;;;;10.52;6.68;;;;;;;;;;5033939;28;20063;-83
2021/12/08 14:24:04;;;;;;;11.77;5.85;;;;;;;;;;5040557;28;20108;-83
2021/12/08 14:26:32;;;;;;;9.88;6.60;;;;;;;;;;5038175;28;20108;-83
2021/12/08 14:28:58;;;;;;;9.27;6.07;;;;;;;;;;5057401;28;20523;-85
2021/12/08 14:31:35;;;;;;;10.10;6.25;;;;;;;;;;5030475;28;20028;-85
2021/12/08 14:34:03;;;;;;;11.95;6.40;;;;;;;;;;5037420;28;20029;-85
2021/12/08 14:36:46;;;;;;;10.75;6.40;;;;;;;;;;5036817;28;20037;-83
2021/12/08 14:39:19;;;;;;;9.73;5.97;;;;;;;;;;5035944;28;20423;-84
2021/12/08 14:41:47;;;;;;;8.27;5.72;;;;;;;;;;5037007;28;20622;-85
2021/12/08 14:44:16;;;;;;;12.60;5.82;;;;;;;;;;5035274;28;20021;-85
2021/12/08 14:46:44;;;;;;;8.48;5.97;;;;;;;;;;5035915;28;20869;-85
2021/12/08 14:49:14;;;;;;;8.85;6.40;;;;;;;;;;5041027;28;20099;-85
2021/12/08 14:51:40;;;;;;;8.90;6.03;;;;;;;;;;5038953;28;20030;-83
2021/12/08 14:54:27;;;;;;;8.10;5.88;;;;;;;;;;5042384;28;20022;-83
2021/12/08 14:57:23;;;;;;;9.43;6.18;;;;;;;;;;5033154;28;20040;-84
2021/12/08 14:59:59;;;;;;;10.73;6.63;;;;;;;;;;5043962;28;20033;-83
2021/12/08 15:02:38;;;;;;;12.00;6.00;;;;;;;;;;5040080;28;20021;-82
2021/12/08 15:05:18;;;;;;;11.75;6.75;;;;;;;;;;5040148;28;20047;-85
2021/12/08 15:07:43;;;;;;;12.25;6.75;;;;;;;;;;5044416;28;20506;-84
2021/12/08 15:10:27;;;;;;;10.38;6.25;;;;;;;;;;5040486;28;20029;-84
2021/12/08 15:13:06;;;;;;;11.45;6.50;;;;;;;;;;5042094;28;20021;-84
2021/12/08 15:15:32;;;;;;;11.63;6.35;;;;;;;;;;5038517;28;20022;-85
2021/12/08 15:18:00;;;;;;;11.50;6.55;;;;;;;;;;5041071;28;20060;-85
2021/12/08 16:50:29;;;;;;;12.60;7.40;;;;;;;;;;4973046;28;20106;-90
2021/12/08 16:53:58;;;;;;;11.60;6.95;;;;;;;;;;4950356;28;20073;-90
2021/12/08 17:04:49;;;;;;;14.10;6.70;;;;;;;;;;4875829;29;20127;-90
2021/12/08 17:07:29;;;;;;;13.35;6.72;;;;;;;;;;4898964;29;20044;-89
2021/12/08 17:10:01;;;;;;;9.50;6.40;;;;;;;;;;4920246;28;20054;-90
2021/12/08 17:12:31;;;;;;;12.25;6.93;;;;;;;;;;4969581;28;20336;-89
2021/12/08 17:15:27;;;;;;;;;;;;;;;;;;;;;
2021/12/08 17:18:20;;;;;;;10.27;6.88;;;;;;;;;;4980412;28;20113;-90
2021/12/08 17:20:51;;;;;;;12.63;5.75;;;;;;;;;;4972313;28;20077;-91
2021/12/08 17:23:28;;;;;;;11.88;6.55;;;;;;;;;;4959528;28;20502;-89
2021/12/08 17:25:57;;;;;;;9.18;6.32;;;;;;;;;;4975661;28;20026;-89
2021/12/08 17:28:26;;;;;;;18.38;6.90;;;;;;;;;;4945126;28;20030;-89
2021/12/08 17:31:30;;;;;;;14.07;6.35;;;;;;;;;;4980150;28;20031;-90
2021/12/08 17:34:11;;;;;;;12.00;7.15;;;;;;;;;;4975832;28;20464;-90
2021/12/08 17:54:10;;;;;;;12.88;6.75;;;;;;;;;;4960667;29;20065;-89